createdAt,value
2019-03-29T00:01:51.231Z,12.48
2019-03-29T00:04:23.784Z,12.47
2019-03-29T00:06:56.333Z,12.46
2019-03-29T00:09:28.862Z,12.44
2019-03-29T00:12:01.283Z,12.44
2019-03-29T00:14:33.723Z,12.44
2019-03-29T00:17:06.238Z,12.40
2019-03-29T00:19:38.836Z,12.37
2019-03-29T00:22:11.263Z,12.30
2019-03-29T00:24:43.882Z,12.22
2019-03-29T00:27:16.427Z,12.15
2019-03-29T00:29:49.295Z,12.08
2019-03-29T00:32:21.780Z,12.01
2019-03-29T00:34:54.917Z,11.93
2019-03-29T00:37:27.475Z,11.86
2019-03-29T00:39:59.930Z,11.79
2019-03-29T00:42:32.335Z,11.74
2019-03-29T00:45:05.224Z,11.70
2019-03-29T00:47:37.681Z,11.68
2019-03-29T00:50:10.818Z,11.69
2019-03-29T00:52:43.553Z,11.70
2019-03-29T00:55:16.530Z,11.71
2019-03-29T00:57:49.358Z,11.72
2019-03-29T01:00:21.847Z,11.71
2019-03-29T01:02:54.258Z,11.68
2019-03-29T01:05:26.658Z,11.65
2019-03-29T01:08:07.560Z,11.62
2019-03-29T01:10:33.671Z,11.58
2019-03-29T01:13:06.243Z,11.55
2019-03-29T01:15:38.708Z,11.50
2019-03-29T01:18:11.819Z,11.45
2019-03-29T01:20:44.237Z,11.41
2019-03-29T01:23:16.836Z,11.38
2019-03-29T01:25:49.231Z,11.36
2019-03-29T01:28:21.731Z,11.34
2019-03-29T01:30:54.111Z,11.34
2019-03-29T01:33:26.554Z,11.36
2019-03-29T01:35:59.192Z,11.36
2019-03-29T01:38:31.656Z,11.37
2019-03-29T01:41:04.435Z,11.35
2019-03-29T01:48:41.737Z,11.31
2019-03-29T01:51:14.134Z,11.30
2019-03-29T01:53:47.166Z,11.28
2019-03-29T01:56:19.613Z,11.28
2019-03-29T01:58:52.913Z,11.26
2019-03-29T02:01:29.091Z,11.27
2019-03-29T02:04:05.760Z,11.26
2019-03-29T02:06:37.327Z,11.25
2019-03-29T02:09:10.087Z,11.24
2019-03-29T02:11:42.604Z,11.23
2019-03-29T02:14:14.988Z,11.23
2019-03-29T02:16:47.515Z,11.23
2019-03-29T02:19:20.020Z,11.21
2019-03-29T02:21:53.080Z,11.20
2019-03-29T02:24:25.833Z,11.20
2019-03-29T02:26:58.522Z,11.18
2019-03-29T02:29:31.338Z,11.16
2019-03-29T02:32:03.723Z,11.16
2019-03-29T02:34:36.139Z,11.17
2019-03-29T02:37:08.510Z,11.17
2019-03-29T02:39:41.287Z,11.16
2019-03-29T02:42:14.757Z,11.15
2019-03-29T02:44:47.327Z,11.13
2019-03-29T02:47:21.528Z,11.13
2019-03-29T02:49:54.172Z,11.14
2019-03-29T02:52:26.544Z,11.15
2019-03-29T02:54:59.083Z,11.16
2019-03-29T02:57:31.480Z,11.15
2019-03-29T03:00:04.745Z,11.14
2019-03-29T03:02:37.226Z,11.14
2019-03-29T03:05:10.589Z,11.11
2019-03-29T03:07:43.065Z,11.08
2019-03-29T03:10:15.786Z,11.05
2019-03-29T03:12:48.266Z,11.03
2019-03-29T03:15:20.754Z,10.99
2019-03-29T03:17:53.156Z,10.94
2019-03-29T03:20:25.680Z,10.90
2019-03-29T03:22:58.063Z,10.89
2019-03-29T03:25:30.607Z,10.87
2019-03-29T03:28:03.227Z,10.83
2019-03-29T03:30:35.766Z,10.80
2019-03-29T03:33:08.437Z,10.78
2019-03-29T03:35:40.914Z,10.75
2019-03-29T03:38:13.347Z,10.71
2019-03-29T03:40:46.507Z,10.65
2019-03-29T03:43:19.000Z,10.61
2019-03-29T03:45:51.417Z,10.59
2019-03-29T03:48:23.865Z,10.56
2019-03-29T03:50:56.279Z,10.53
2019-03-29T03:53:28.929Z,10.52
2019-03-29T03:56:02.422Z,10.52
2019-03-29T03:58:35.430Z,10.53
2019-03-29T04:01:07.941Z,10.53
2019-03-29T04:03:40.412Z,10.54
2019-03-29T04:06:12.811Z,10.55
2019-03-29T04:08:45.384Z,10.56
2019-03-29T04:11:17.923Z,10.56
2019-03-29T04:13:50.388Z,10.55
2019-03-29T04:16:22.889Z,10.55
2019-03-29T04:18:55.375Z,10.54
2019-03-29T04:21:27.870Z,10.55
2019-03-29T04:24:00.380Z,10.55
2019-03-29T04:26:32.806Z,10.52
2019-03-29T04:29:05.561Z,10.47
2019-03-29T04:31:37.925Z,10.47
2019-03-29T04:34:10.376Z,10.45
2019-03-29T04:36:42.780Z,10.47
2019-03-29T04:39:15.210Z,10.47
2019-03-29T04:41:48.622Z,10.48
2019-03-29T04:44:21.268Z,10.46
2019-03-29T04:46:53.757Z,10.43
2019-03-29T04:49:26.261Z,10.38
2019-03-29T04:51:58.837Z,10.32
2019-03-29T04:54:31.371Z,10.26
2019-03-29T04:57:03.775Z,10.21
2019-03-29T04:59:36.704Z,10.15
2019-03-29T05:02:09.156Z,10.10
2019-03-29T05:04:41.592Z,10.03
2019-03-29T05:07:14.006Z,9.98
2019-03-29T05:09:46.425Z,9.99
2019-03-29T05:12:18.982Z,9.98
2019-03-29T05:14:51.514Z,9.99
2019-03-29T05:17:24.101Z,10.02
2019-03-29T05:19:56.628Z,10.03
2019-03-29T05:22:29.222Z,10.05
2019-03-29T05:25:01.655Z,10.09
2019-03-29T05:27:34.098Z,10.12
2019-03-29T05:30:07.018Z,10.16
2019-03-29T05:32:39.451Z,10.15
2019-03-29T05:35:11.983Z,10.14
2019-03-29T05:37:44.554Z,10.12
2019-03-29T05:40:17.099Z,10.11
2019-03-29T05:42:50.742Z,10.12
2019-03-29T05:45:23.201Z,10.12
2019-03-29T05:47:55.660Z,10.13
2019-03-29T05:50:28.076Z,10.13
2019-03-29T05:53:00.559Z,10.14
2019-03-29T05:55:33.259Z,10.17
2019-03-29T05:58:06.087Z,10.20
2019-03-29T06:00:38.673Z,10.25
2019-03-29T06:03:11.131Z,10.27
2019-03-29T06:05:43.525Z,10.30
2019-03-29T06:08:16.187Z,10.33
2019-03-29T06:10:49.766Z,10.36
2019-03-29T06:13:22.385Z,10.38
2019-03-29T06:15:55.260Z,10.42
2019-03-29T06:18:27.889Z,10.43
2019-03-29T06:21:00.309Z,10.48
2019-03-29T06:23:32.877Z,10.53
2019-03-29T06:26:05.292Z,10.58
2019-03-29T06:28:37.769Z,10.67
2019-03-29T06:31:10.256Z,10.74
2019-03-29T06:33:44.517Z,10.83
2019-03-29T06:36:18.500Z,10.92
2019-03-29T06:38:53.071Z,11.02
2019-03-29T06:41:25.549Z,11.13
2019-03-29T06:43:59.168Z,11.23
2019-03-29T06:46:31.692Z,11.33
2019-03-29T06:49:04.142Z,11.42
2019-03-29T06:51:36.735Z,11.50
2019-03-29T06:54:09.309Z,11.58
2019-03-29T06:56:41.783Z,11.68
2019-03-29T06:59:14.817Z,11.78
2019-03-29T07:01:47.271Z,11.85
2019-03-29T07:04:19.754Z,11.93
2019-03-29T07:06:52.182Z,12.00
2019-03-29T07:09:24.934Z,12.05
2019-03-29T07:11:57.478Z,12.13
2019-03-29T07:14:30.043Z,12.20
2019-03-29T07:17:02.525Z,12.29
2019-03-29T07:19:34.979Z,12.37
2019-03-29T07:22:07.446Z,12.45
2019-03-29T07:24:40.067Z,12.53
2019-03-29T07:27:12.513Z,12.61
2019-03-29T07:29:45.429Z,12.68
2019-03-29T07:32:17.922Z,12.78
2019-03-29T07:34:50.478Z,12.86
2019-03-29T07:37:22.973Z,12.96
2019-03-29T07:39:55.571Z,13.05
2019-03-29T07:42:27.977Z,13.14
2019-03-29T07:45:00.436Z,13.25
2019-03-29T07:47:32.897Z,13.32
2019-03-29T07:50:05.689Z,13.42
2019-03-29T07:52:38.110Z,13.51
2019-03-29T07:55:11.009Z,13.57
2019-03-29T07:57:43.559Z,13.66
2019-03-29T08:00:16.704Z,13.75
2019-03-29T08:02:49.303Z,13.81
2019-03-29T08:05:21.697Z,13.89
2019-03-29T08:07:54.171Z,13.97
2019-03-29T08:10:30.945Z,14.10
2019-03-29T08:13:00.899Z,14.18
2019-03-29T08:15:33.417Z,14.26
2019-03-29T08:18:06.091Z,14.38
2019-03-29T08:20:43.557Z,14.47
2019-03-29T08:23:12.712Z,14.55
2019-03-29T08:25:45.151Z,14.62
2019-03-29T08:28:17.800Z,14.69
2019-03-29T08:30:50.334Z,14.77
2019-03-29T08:33:23.043Z,14.83
2019-03-29T08:35:55.586Z,14.93
2019-03-29T08:38:28.045Z,14.99
2019-03-29T08:41:00.528Z,15.04
2019-03-29T08:43:33.171Z,15.09
2019-03-29T08:46:05.590Z,15.12
2019-03-29T08:48:38.068Z,15.17
2019-03-29T08:51:10.537Z,15.23
2019-03-29T08:53:43.210Z,15.31
2019-03-29T08:56:15.838Z,15.38
2019-03-29T08:58:48.712Z,15.45
2019-03-29T09:01:21.175Z,15.54
2019-03-29T09:04:04.786Z,15.60
2019-03-29T09:06:30.135Z,15.67
2019-03-29T09:09:03.409Z,15.73
2019-03-29T09:11:38.770Z,15.80
2019-03-29T09:14:10.142Z,15.86
2019-03-29T09:16:42.534Z,15.93
2019-03-29T09:19:15.069Z,16.02
2019-03-29T09:21:47.485Z,16.07
2019-03-29T09:24:22.378Z,16.12
2019-03-29T09:26:54.028Z,16.18
2019-03-29T09:29:26.569Z,16.24
2019-03-29T09:32:00.133Z,16.29
2019-03-29T09:34:32.552Z,16.36
2019-03-29T09:37:05.001Z,16.38
2019-03-29T09:39:37.449Z,16.43
2019-03-29T09:42:10.825Z,16.50
2019-03-29T09:44:43.485Z,16.56
2019-03-29T09:47:15.926Z,16.61
2019-03-29T09:49:48.397Z,16.69
2019-03-29T09:52:21.299Z,16.73
2019-03-29T09:54:54.104Z,16.80
2019-03-29T09:57:37.148Z,16.85
2019-03-29T10:00:01.359Z,16.88
2019-03-29T10:02:33.986Z,16.92
2019-03-29T10:05:06.602Z,16.99
2019-03-29T10:07:39.128Z,17.04
2019-03-29T10:10:11.893Z,17.10
2019-03-29T10:12:44.319Z,17.19
2019-03-29T10:15:16.984Z,17.25
2019-03-29T10:17:49.454Z,17.33
2019-03-29T10:20:21.932Z,17.40
2019-03-29T10:22:54.336Z,17.47
2019-03-29T10:25:26.736Z,17.53
2019-03-29T10:27:59.221Z,17.56
2019-03-29T10:30:46.603Z,17.61
2019-03-29T10:33:18.304Z,17.68
2019-03-29T10:35:52.712Z,17.70
2019-03-29T10:38:24.890Z,17.71
2019-03-29T10:40:57.288Z,17.73
2019-03-29T10:43:29.823Z,17.76
2019-03-29T10:46:02.272Z,17.83
2019-03-29T10:48:34.750Z,17.91
2019-03-29T10:51:08.432Z,17.99
2019-03-29T10:53:41.326Z,18.05
2019-03-29T10:56:13.780Z,18.09
2019-03-29T10:58:46.240Z,18.14
2019-03-29T11:01:18.993Z,18.16
2019-03-29T11:03:51.534Z,18.16
2019-03-29T11:06:24.181Z,18.18
2019-03-29T11:08:56.671Z,18.21
2019-03-29T11:11:29.203Z,18.27
2019-03-29T11:14:01.714Z,18.31
2019-03-29T11:16:34.442Z,18.37
2019-03-29T11:19:06.892Z,18.38
2019-03-29T11:21:39.337Z,18.38
2019-03-29T11:24:11.981Z,18.38
2019-03-29T11:26:44.514Z,18.46
2019-03-29T11:29:17.117Z,18.56
2019-03-29T11:31:49.740Z,18.66
2019-03-29T11:34:22.201Z,18.75
2019-03-29T11:36:54.644Z,18.84
2019-03-29T11:39:27.551Z,18.95
2019-03-29T11:42:03.275Z,19.07
2019-03-29T11:44:34.799Z,19.16
2019-03-29T11:47:07.635Z,19.20
2019-03-29T11:49:40.160Z,19.22
2019-03-29T11:52:12.633Z,19.21
2019-03-29T11:54:45.170Z,19.21
2019-03-29T11:57:17.670Z,19.24
2019-03-29T11:59:50.747Z,19.21
2019-03-29T12:02:31.115Z,19.20
2019-03-29T12:04:58.280Z,19.21
2019-03-29T12:07:30.842Z,19.23
2019-03-29T12:10:03.695Z,19.23
2019-03-29T12:12:36.501Z,19.33
2019-03-29T12:15:10.273Z,19.44
2019-03-29T12:17:42.829Z,19.53
2019-03-29T12:20:15.354Z,19.59
2019-03-29T12:22:47.875Z,19.62
2019-03-29T12:25:21.098Z,19.66
2019-03-29T12:27:53.747Z,19.69
2019-03-29T12:30:31.723Z,19.70
2019-03-29T12:33:01.264Z,19.74
2019-03-29T12:35:33.975Z,19.75
2019-03-29T12:38:06.825Z,19.75
2019-03-29T12:40:39.569Z,19.76
2019-03-29T12:43:12.787Z,19.78
2019-03-29T12:45:45.503Z,19.81
2019-03-29T12:48:18.094Z,19.79
2019-03-29T12:50:50.534Z,19.81
2019-03-29T12:53:23.001Z,19.83
2019-03-29T12:55:55.589Z,19.81
2019-03-29T12:58:28.119Z,19.81
2019-03-29T13:01:00.845Z,19.82
2019-03-29T13:03:33.321Z,19.84
2019-03-29T13:06:05.844Z,19.87
2019-03-29T13:08:38.361Z,19.88
2019-03-29T13:11:11.086Z,19.87
2019-03-29T13:13:43.538Z,19.90
2019-03-29T13:16:16.087Z,19.93
2019-03-29T13:18:48.548Z,19.96
2019-03-29T13:21:21.098Z,19.98
2019-03-29T13:23:53.571Z,20.00
2019-03-29T13:26:26.517Z,20.00
2019-03-29T13:28:59.044Z,20.00
2019-03-29T13:31:31.762Z,20.02
2019-03-29T13:34:04.272Z,20.04
2019-03-29T13:36:36.760Z,20.04
2019-03-29T13:39:09.599Z,20.04
2019-03-29T13:41:42.211Z,20.02
2019-03-29T13:44:23.774Z,20.01
2019-03-29T13:46:48.939Z,20.01
2019-03-29T13:49:21.349Z,20.02
2019-03-29T13:51:53.825Z,20.05
2019-03-29T13:54:26.292Z,20.08
2019-03-29T13:56:59.415Z,20.12
2019-03-29T13:59:32.145Z,20.14
2019-03-29T14:02:04.643Z,20.14
2019-03-29T14:04:37.355Z,20.17
2019-03-29T14:07:09.893Z,20.21
2019-03-29T14:09:42.539Z,20.22
2019-03-29T14:12:15.285Z,20.24
2019-03-29T14:14:47.766Z,20.26
2019-03-29T14:17:20.419Z,20.28
2019-03-29T14:19:52.899Z,20.31
2019-03-29T14:22:25.838Z,20.34
2019-03-29T14:24:58.287Z,20.38
2019-03-29T14:27:31.411Z,20.42
2019-03-29T14:30:05.310Z,20.41
2019-03-29T14:32:38.056Z,20.41
2019-03-29T14:35:10.923Z,20.41
2019-03-29T14:37:43.329Z,20.41
2019-03-29T14:40:15.806Z,20.40
2019-03-29T14:42:48.977Z,20.41
2019-03-29T14:45:21.479Z,20.43
2019-03-29T14:47:53.981Z,20.43
2019-03-29T14:50:26.541Z,20.42
2019-03-29T14:52:59.232Z,20.43
2019-03-29T14:55:31.775Z,20.44
2019-03-29T14:58:04.924Z,20.45
2019-03-29T15:00:36.017Z,20.47
2019-03-29T15:03:05.251Z,20.49
2019-03-29T15:05:37.800Z,20.49
2019-03-29T15:08:10.345Z,20.50
2019-03-29T15:10:45.592Z,20.49
2019-03-29T15:13:17.736Z,20.50
2019-03-29T15:15:53.311Z,20.51
2019-03-29T15:18:24.560Z,20.51
2019-03-29T15:20:57.139Z,20.53
2019-03-29T15:23:29.628Z,20.54
2019-03-29T15:26:02.086Z,20.52
2019-03-29T15:28:37.341Z,20.52
2019-03-29T15:31:09.496Z,20.55
2019-03-29T15:33:42.041Z,20.56
2019-03-29T15:36:15.048Z,20.57
2019-03-29T15:38:47.530Z,20.58
2019-03-29T15:41:20.143Z,20.58
2019-03-29T15:43:52.601Z,20.56
2019-03-29T15:46:25.969Z,20.57
2019-03-29T15:48:58.438Z,20.57
2019-03-29T15:51:30.989Z,20.57
2019-03-29T15:54:03.406Z,20.52
2019-03-29T15:56:35.856Z,20.54
2019-03-29T15:59:08.871Z,20.54
2019-03-29T16:01:42.100Z,20.54
2019-03-29T16:04:14.649Z,20.52
2019-03-29T16:06:47.107Z,20.53
2019-03-29T16:09:19.592Z,20.54
2019-03-29T16:11:52.057Z,20.54
2019-03-29T16:14:24.645Z,20.53
2019-03-29T16:16:58.025Z,20.51
2019-03-29T16:19:30.595Z,20.50
2019-03-29T16:22:05.882Z,20.50
2019-03-29T16:24:37.361Z,20.49
2019-03-29T16:27:09.857Z,20.46
2019-03-29T16:29:42.360Z,20.46
2019-03-29T16:32:15.873Z,20.45
2019-03-29T16:34:50.707Z,20.44
2019-03-29T16:37:22.635Z,20.43
2019-03-29T16:39:55.095Z,20.42
2019-03-29T16:42:27.914Z,20.40
2019-03-29T16:45:00.557Z,20.38
2019-03-29T16:47:33.612Z,20.38
2019-03-29T16:50:06.557Z,20.35
2019-03-29T16:52:39.058Z,20.34
2019-03-29T16:55:13.578Z,20.33
2019-03-29T16:57:45.836Z,20.32
2019-03-29T17:00:16.611Z,20.30
2019-03-29T17:02:46.653Z,20.29
2019-03-29T17:05:19.257Z,20.27
2019-03-29T17:07:51.772Z,20.24
2019-03-29T17:10:24.310Z,20.22
2019-03-29T17:12:57.506Z,20.19
2019-03-29T17:15:30.001Z,20.17
2019-03-29T17:18:03.292Z,20.14
2019-03-29T17:20:35.810Z,20.11
2019-03-29T17:23:08.916Z,20.07
2019-03-29T17:25:41.534Z,20.03
2019-03-29T17:28:15.266Z,19.98
2019-03-29T17:30:56.456Z,19.95
2019-03-29T17:33:29.706Z,19.90
2019-03-29T17:36:02.317Z,19.85
2019-03-29T17:38:35.186Z,19.83
2019-03-29T17:41:07.822Z,19.78
2019-03-29T17:43:40.349Z,19.73
2019-03-29T17:46:16.606Z,19.68
2019-03-29T17:48:47.281Z,19.65
2019-03-29T17:51:20.855Z,19.61
2019-03-29T17:53:53.485Z,19.56
2019-03-29T17:56:26.157Z,19.52
2019-03-29T17:58:58.762Z,19.47
2019-03-29T18:01:31.677Z,19.41
2019-03-29T18:04:04.271Z,19.36
2019-03-29T18:06:37.577Z,19.31
2019-03-29T18:09:10.551Z,19.25
2019-03-29T18:11:43.198Z,19.21
2019-03-29T18:14:15.763Z,19.16
2019-03-29T18:16:48.321Z,19.10
2019-03-29T18:19:21.036Z,19.03
2019-03-29T18:21:54.338Z,18.98
2019-03-29T18:24:26.925Z,18.93
2019-03-29T18:26:59.489Z,18.89
2019-03-29T18:29:31.988Z,18.82
2019-03-29T18:32:04.806Z,18.77
2019-03-29T18:34:41.445Z,18.71
2019-03-29T18:37:13.234Z,18.65
2019-03-29T18:39:46.522Z,18.58
2019-03-29T18:42:20.096Z,18.53
2019-03-29T18:44:52.686Z,18.47
2019-03-29T18:47:25.311Z,18.43
2019-03-29T18:49:57.843Z,18.38
2019-03-29T18:52:31.021Z,18.32
2019-03-29T18:55:03.591Z,18.27
2019-03-29T18:57:36.169Z,18.23
2019-03-29T19:00:10.032Z,18.18
2019-03-29T19:02:42.614Z,18.14
2019-03-29T19:05:25.230Z,18.08
2019-03-29T19:07:58.593Z,18.03
2019-03-29T19:10:31.190Z,17.99
2019-03-29T19:13:03.774Z,17.94
2019-03-29T19:15:36.370Z,17.93
2019-03-29T19:18:08.991Z,17.87
2019-03-29T19:20:41.812Z,17.84
2019-03-29T19:23:15.053Z,17.80
2019-03-29T19:25:47.662Z,17.76
2019-03-29T19:28:21.463Z,17.71
2019-03-29T19:30:53.990Z,17.66
2019-03-29T19:33:26.703Z,17.64
2019-03-29T19:35:59.309Z,17.59
2019-03-29T19:38:32.463Z,17.54
2019-03-29T19:41:05.042Z,17.48
2019-03-29T19:43:37.605Z,17.42
2019-03-29T19:46:10.209Z,17.35
2019-03-29T19:48:42.739Z,17.27
2019-03-29T19:51:15.351Z,17.19
2019-03-29T19:53:48.676Z,17.09
2019-03-29T19:56:22.607Z,16.97
2019-03-29T19:58:55.529Z,16.80
2019-03-29T20:01:28.997Z,16.62
2019-03-29T20:04:01.653Z,16.50
2019-03-29T20:06:34.162Z,16.40
2019-03-29T20:09:10.255Z,16.32
2019-03-29T20:11:43.043Z,16.23
2019-03-29T20:14:15.761Z,16.18
2019-03-29T20:16:48.756Z,16.14
2019-03-29T20:19:21.398Z,16.11
2019-03-29T20:21:54.400Z,16.08
2019-03-29T20:24:27.065Z,16.07
2019-03-29T20:27:00.113Z,16.05
2019-03-29T20:29:32.810Z,16.01
2019-03-29T20:32:05.506Z,15.99
2019-03-29T20:34:38.231Z,15.95
2019-03-29T20:37:10.933Z,15.93
2019-03-29T20:39:43.515Z,15.91
2019-03-29T20:42:17.415Z,15.86
2019-03-29T20:44:50.076Z,15.74
2019-03-29T20:47:23.966Z,15.60
2019-03-29T20:49:56.666Z,15.44
2019-03-29T20:52:29.388Z,15.30
2019-03-29T20:55:02.092Z,15.20
2019-03-29T20:57:35.508Z,15.13
2019-03-29T21:00:09.340Z,15.09
2019-03-29T21:02:41.932Z,15.06
2019-03-29T21:05:14.965Z,15.04
2019-03-29T21:07:47.879Z,14.94
2019-03-29T21:10:20.650Z,14.78
2019-03-29T21:12:53.993Z,14.66
2019-03-29T21:15:26.626Z,14.58
2019-03-29T21:17:59.208Z,14.55
2019-03-29T21:20:31.837Z,14.58
2019-03-29T21:23:04.597Z,14.55
2019-03-29T21:25:37.271Z,14.44
2019-03-29T21:28:10.689Z,14.30
2019-03-29T21:30:43.425Z,14.15
2019-03-29T21:33:16.051Z,14.03
2019-03-29T21:35:48.701Z,13.97
2019-03-29T21:38:21.384Z,13.87
2019-03-29T21:40:54.177Z,13.75
2019-03-29T21:43:27.806Z,13.62
2019-03-29T21:46:00.341Z,13.53
2019-03-29T21:48:33.018Z,13.47
2019-03-29T21:51:05.628Z,13.45
2019-03-29T21:53:38.331Z,13.44
2019-03-29T21:56:11.261Z,13.41
2019-03-29T21:58:44.883Z,13.39
2019-03-29T22:01:17.745Z,13.39
2019-03-29T22:03:50.505Z,13.39
2019-03-29T22:06:23.089Z,13.35
2019-03-29T22:08:55.888Z,13.31
2019-03-29T22:11:28.447Z,13.27
2019-03-29T22:14:01.958Z,13.21
2019-03-29T22:16:34.459Z,13.19
2019-03-29T22:19:07.071Z,13.17
2019-03-29T22:21:39.745Z,13.15
2019-03-29T22:24:12.580Z,13.14
2019-03-29T22:26:45.102Z,13.09
2019-03-29T22:29:17.628Z,13.06
2019-03-29T22:31:50.774Z,13.06
2019-03-29T22:34:23.387Z,13.03
2019-03-29T22:37:17.529Z,12.96
2019-03-29T22:39:50.249Z,12.89
2019-03-29T22:42:22.913Z,12.81
2019-03-29T22:44:57.041Z,12.76
2019-03-29T22:47:30.376Z,12.74
2019-03-29T22:50:02.976Z,12.72
2019-03-29T22:52:35.500Z,12.68
2019-03-29T22:55:08.661Z,12.64
2019-03-29T22:57:41.265Z,12.60
2019-03-29T23:00:28.521Z,12.61
2019-03-29T23:03:01.468Z,12.62
2019-03-29T23:05:33.994Z,12.60
2019-03-29T23:08:06.771Z,12.55
2019-03-29T23:10:39.324Z,12.51
2019-03-29T23:13:11.863Z,12.49
2019-03-29T23:15:44.442Z,12.46
2019-03-29T23:18:17.332Z,12.44
2019-03-29T23:20:49.941Z,12.44
2019-03-29T23:23:22.451Z,12.42
2019-03-29T23:25:55.039Z,12.34
2019-03-29T23:28:27.654Z,12.27
2019-03-29T23:31:01.574Z,12.20
2019-03-29T23:33:34.610Z,12.17
2019-03-29T23:36:08.105Z,12.16
2019-03-29T23:38:41.162Z,12.20
2019-03-29T23:41:13.852Z,12.23
2019-03-29T23:43:46.505Z,12.18
2019-03-29T23:46:19.100Z,12.16
2019-03-29T23:48:51.968Z,12.15
2019-03-29T23:51:24.518Z,12.09
2019-03-29T23:53:57.074Z,12.02
2019-03-29T23:56:29.603Z,11.91
2019-03-29T23:59:02.166Z,11.85
